Juneau International, AK

12:34 AM AKDT on October 01, 2014 (GMT -0800)
Hoonah | Change Station
CLOSE
Current Station
Airport
Location: Hoonah,
Elevation: 0 ft
Nearby Weather Stations

Elev 0 ft 58.11 °N, 135.45 °W | Updated 4 minutes ago

Fog
Fog
37 °F
Feels Like 37 °F
N
0
Wind Variable Wind from North

Today
High -- | Low -- °F
--% Chance of Precip.
Yesterday
High -- | Low -- °F
Precip. -- in
7:03 AM 6:31 PM
Waxing Crescent, 45% visible
Pressure 30.08 in
Visibility 0.2 miles
Clouds Mostly Cloudy 400 ft
Mostly Cloudy 1500 ft
Mostly Cloudy 7000 ft
Dew Point 37 °F
Humidity 100%
Rainfall 0.00 in
Snow Depth Not available.
UV 0 out of 12
Pollen Not available.
Air Quality Not available.
Flu Activity Not available.
SPECI PAOH 010830Z AUTO 00000KT 1/4SM FG BKN004 BKN015 BKN070 03/03 A3008 RMK AO2 TSNO BKN V SCT $

More Conditions Fewer Conditions

Pressure 30.08 in
Visibility 0.2 miles
Clouds Mostly Cloudy 400 ft
Mostly Cloudy 1500 ft
Mostly Cloudy 7000 ft
Dew Point 37 °F
Humidity 100%
Rainfall 0.00 in
Snow Depth Not available.
UV 0 out of 12
Pollen Not available.
Air Quality Not available.
Flu Activity Not available.
SPECI PAOH 010830Z AUTO 00000KT 1/4SM FG BKN004 BKN015 BKN070 03/03 A3008 RMK AO2 TSNO BKN V SCT $

More Conditions Fewer Conditions

10-Day Weather Forecast

Almanac

Astronomy

Oct. 01, 2014 Rise Set
Actual Time 7:03 AM AKDT 6:31 PM AKDT
Civil Twilight 6:23 AM AKDT 7:10 PM AKDT
Nautical Twilight 5:37 AM AKDT 7:56 PM AKDT
Astronomical Twilight 4:48 AM AKDT 8:45 PM AKDT
Moon 3:07 PM AKDT 11:16 PM AKDT
Length of Visible Light 12h 47m
Length of Day
11h 28m
Tomorrow will be 5m 2s shorter.
Waxing Crescent, 45% of the Moon is Illuminated
Today
Waxing Crescent
Oct 1
First Quarter
Oct 8
Full
Oct 15
Last Quarter
Oct 23
New

Today's Extremes

State Highs State Lows

Community

WunderPhotos

Upload Photos

1,757,902 photos uploaded!

Nearby

Snow Depth

Station Depth Elevation
Summit Creek 0 in 1400 ft
Susitna Valley High 2 in 375 ft
Imnaviat Creek 22 in 3050 ft
Upper Chena 7 in 2850 ft
Grandview 5 in 1100 ft

Earthquake Activity

City Distance Mag. Time & Date
No recent earthquake activity has been reported nearby.
Minimum magnitude displayed is 2.5.

Coastal Water Temperatures

Place Temperature
No Stations Reporting

Nearby Weather Stations